Map

Track Data

SID SEASON NUMBER BASIN SUBBASIN NAME ISO_TIME NATURE LAT LON WMO_WIND WMO_PRES WMO_AGENCY TRACK_TYPE DIST2LAND LANDFALL IFLAG USA_AGENCY USA_ATCF_ID USA_LAT USA_LON USA_RECORD USA_STATUS USA_WIND USA_PRES USA_SSHS USA_R34_NE USA_R34_SE USA_R34_SW USA_R34_NW USA_R50_NE USA_R50_SE USA_R50_SW USA_R50_NW USA_R64_NE USA_R64_SE USA_R64_SW USA_R64_NW USA_POCI USA_ROCI USA_RMW USA_EYE TOKYO_LAT TOKYO_LON TOKYO_GRADE TOKYO_WIND TOKYO_PRES TOKYO_R50_DIR TOKYO_R50_LONG TOKYO_R50_SHORT TOKYO_R30_DIR TOKYO_R30_LONG TOKYO_R30_SHORT TOKYO_LAND CMA_LAT CMA_LON CMA_CAT CMA_WIND CMA_PRES HKO_LAT HKO_LON HKO_CAT HKO_WIND HKO_PRES NEWDELHI_LAT NEWDELHI_LON NEWDELHI_GRADE NEWDELHI_WIND NEWDELHI_PRES NEWDELHI_CI NEWDELHI_DP NEWDELHI_POCI REUNION_LAT REUNION_LON REUNION_TYPE REUNION_WIND REUNION_PRES REUNION_TNUM REUNION_CI REUNION_RMW REUNION_R34_NE REUNION_R34_SE REUNION_R34_SW REUNION_R34_NW REUNION_R50_NE REUNION_R50_SE REUNION_R50_SW REUNION_R50_NW REUNION_R64_NE REUNION_R64_SE REUNION_R64_SW REUNION_R64_NW BOM_LAT BOM_LON BOM_TYPE BOM_WIND BOM_PRES BOM_TNUM BOM_CI BOM_RMW BOM_R34_NE BOM_R34_SE BOM_R34_SW BOM_R34_NW BOM_R50_NE BOM_R50_SE BOM_R50_SW BOM_R50_NW BOM_R64_NE BOM_R64_SE BOM_R64_SW BOM_R64_NW BOM_ROCI BOM_POCI BOM_EYE BOM_POS_METHOD BOM_PRES_METHOD NADI_LAT NADI_LON NADI_CAT NADI_WIND NADI_PRES WELLINGTON_LAT WELLINGTON_LON WELLINGTON_WIND WELLINGTON_PRES DS824_LAT DS824_LON DS824_STAGE DS824_WIND DS824_PRES TD9636_LAT TD9636_LON TD9636_STAGE TD9636_WIND TD9636_PRES TD9635_LAT TD9635_LON TD9635_WIND TD9635_PRES TD9635_ROCI NEUMANN_LAT NEUMANN_LON NEUMANN_CLASS NEUMANN_WIND NEUMANN_PRES MLC_LAT MLC_LON MLC_CLASS MLC_WIND MLC_PRES USA_GUST BOM_GUST BOM_GUST_PER REUNION_GUST REUNION_GUST_PER USA_SEAHGT USA_SEARAD_NE USA_SEARAD_SE USA_SEARAD_SW USA_SEARAD_NW STORM_SPEED STORM_DIR
1888208N25083 1888 31 NI BB NOT_NAMED 1888-07-26 00:00:00 TS 24.8000 82.6000 main 0 0 _________O____ -1 24.8000 82.6000 TC 30 0 0
1888208N25083 1888 31 NI BB NOT_NAMED 1888-07-26 03:00:00 TS 24.8000 82.6000 main 0 0 _________PO___ -1 24.8000 82.6000 TC 30 24.8000 82.6000 1 0 0
1888208N25083 1888 31 NI BB NOT_NAMED 1888-07-26 06:00:00 TS 24.8013 82.5950 main 0 0 _________OP___ -1 24.8000 82.6000 TC 30 24.8032 82.5875 1 0 0
1888208N25083 1888 31 NI BB NOT_NAMED 1888-07-26 09:00:00 TS 24.8022 82.5914 main 0 0 _________PP___ -1 24.8000 82.6000 TC 30 24.8050 82.5800 1 0 0
1888208N25083 1888 31 NI BB NOT_NAMED 1888-07-26 12:00:00 TS 24.8022 82.5913 main 0 0 _________OP___ -1 24.8000 82.6000 TC 30 24.8044 82.5825 1 0 0
1888208N25083 1888 31 NI BB NOT_NAMED 1888-07-26 15:00:00 TS 24.8000 82.6000 main 0 0 _________PO___ -1 24.8000 82.6000 TC 30 24.8000 82.6000 1 0 0
1888208N25083 1888 31 NI BB NOT_NAMED 1888-07-26 18:00:00 TS 24.7959 82.6162 main 0 0 _________OP___ -1 24.8000 82.6000 TC 30 24.7918 82.6324 1 0 107
1888208N25083 1888 31 NI BB NOT_NAMED 1888-07-26 21:00:00 TS 24.7887 82.6412 main 0 0 _________PP___ -1 24.7925 82.6225 TC 30 24.7848 82.6599 1 0 0
1888208N25083 1888 31 NI BB NOT_NAMED 1888-07-27 00:00:00 TS 24.7927 82.6287 main 0 0 _________OP___ -1 24.8000 82.6000 TC 30 24.7855 82.6574 1 1 290
1888208N25083 1888 31 NI BB NOT_NAMED 1888-07-27 03:00:00 TS 24.8212 82.5437 main 0 0 _________PO___ -1 24.8425 82.4875 TC 30 24.8000 82.6000 1 2 288
1888208N25083 1888 31 NI BB NOT_NAMED 1888-07-27 06:00:00 TS 24.8679 82.3788 main 0 0 _________OP___ -1 24.9000 82.3000 TC 30 24.8358 82.4576 1 4 285
1888208N25083 1888 31 NI BB NOT_NAMED 1888-07-27 09:00:00 TS 24.9176 82.1588 main 0 0 _________PP___ -1 24.9501 82.0575 TC 30 24.8852 82.2601 1 4 284
1888208N25083 1888 31 NI BB NOT_NAMED 1888-07-27 12:00:00 TS 24.9710 81.9163 main 0 0 _________OP___ -1 25.0000 81.8000 TC 30 24.9420 82.0326 1 4 284
1888208N25083 1888 31 NI BB NOT_NAMED 1888-07-27 15:00:00 TS 25.0250 81.6962 main 0 0 _________PO___ -1 25.0499 81.5925 TC 30 25.0000 81.8000 1 4 285
1888208N25083 1888 31 NI BB NOT_NAMED 1888-07-27 18:00:00 TS 25.0709 81.4959 main 0 0 _________OP___ -1 25.1000 81.4000 TC 30 25.0419 81.5918 1 4 284
1888208N25083 1888 31 NI BB NOT_NAMED 1888-07-27 21:00:00 TS 25.1138 81.2887 main 0 0 _________PP___ -1 25.1425 81.1925 TC 30 25.0850 81.3849 1 4 285
1888208N25083 1888 31 NI BB NOT_NAMED 1888-07-28 00:00:00 TS 25.1678 81.0928 main 0 0 _________OP___ -1 25.2000 81.0000 TC 30 25.1356 81.1855 1 4 292
1888208N25083 1888 31 NI BB NOT_NAMED 1888-07-28 03:00:00 TS 25.2462 80.9212 main 0 0 _________PO___ -1 25.2925 80.8425 TC 30 25.2000 81.0000 1 3 302
1888208N25083 1888 31 NI BB NOT_NAMED 1888-07-28 06:00:00 TS 25.3468 80.7719 main 0 0 _________OP___ -1 25.4000 80.7000 TC 30 25.2936 80.8438 1 3 308
1888208N25083 1888 31 NI BB NOT_NAMED 1888-07-28 09:00:00 TS 25.4536 80.6288 main 0 0 _________PP___ -1 25.5075 80.5575 TC 30 25.3997 80.7000 1 3 308
1888208N25083 1888 31 NI BB NOT_NAMED 1888-07-28 12:00:00 TS 25.5530 80.4781 main 0 0 _________OP___ -1 25.6000 80.4000 TC 30 25.5061 80.5563 1 3 301
1888208N25083 1888 31 NI BB NOT_NAMED 1888-07-28 15:00:00 TS 25.6287 80.3037 main 0 0 _________PO___ -1 25.6575 80.2075 TC 30 25.6000 80.4000 1 4 292
1888208N25083 1888 31 NI BB NOT_NAMED 1888-07-28 18:00:00 TS 25.6862 80.1092 main 0 0 _________OP___ -1 25.7000 80.0000 TC 30 25.6725 80.2184 1 4 288
1888208N25083 1888 31 NI BB NOT_NAMED 1888-07-28 21:00:00 TS 25.7437 79.9150 main 0 0 _________PP___ -1 25.7574 79.8075 TC 30 25.7299 80.0225 1 4 285
1888208N25083 1888 31 NI BB NOT_NAMED 1888-07-29 00:00:00 TS 25.7862 79.7077 main 0 0 _________OP___ -1 25.8000 79.6000 TC 30 25.7724 79.8153 1 4 279
1888208N25083 1888 31 NI BB NOT_NAMED 1888-07-29 03:00:00 TS 25.8038 79.4750 main 0 0 _________PO___ -1 25.8075 79.3500 TC 30 25.8000 79.6000 1 4 273
1888208N25083 1888 31 NI BB NOT_NAMED 1888-07-29 06:00:00 TS 25.8072 79.2410 main 0 0 _________OP___ -1 25.8000 79.1000 TC 30 25.8143 79.3821 1 4 271
1888208N25083 1888 31 NI BB NOT_NAMED 1888-07-29 09:00:00 TS 25.8074 79.0249 main 0 0 _________PP___ -1 25.7999 78.8925 TC 30 25.8149 79.1573 1 4 270
1888208N25083 1888 31 NI BB NOT_NAMED 1888-07-29 12:00:00 TS 25.8040 78.8145 main 0 0 _________OP___ -1 25.8000 78.7000 TC 30 25.8081 78.9290 1 4 269
1888208N25083 1888 31 NI BB NOT_NAMED 1888-07-29 15:00:00 TS 25.8000 78.6037 main 0 0 _________PO___ -1 25.7999 78.5075 TC 30 25.8000 78.7000 1 4 268
1888208N25083 1888 31 NI BB NOT_NAMED 1888-07-29 18:00:00 TS 25.7939 78.3874 main 0 0 _________OP___ -1 25.8000 78.3000 TC 30 25.7877 78.4748 1 4 268
1888208N25083 1888 31 NI BB NOT_NAMED 1888-07-29 21:00:00 TS 25.7849 78.1536 main 0 0 _________PP___ -1 25.7925 78.0575 TC 30 25.7774 78.2497 1 4 269
1888208N25083 1888 31 NI AS NOT_NAMED 1888-07-30 00:00:00 TS 25.7892 77.9124 main 0 0 _________OP___ -1 25.8000 77.8000 TC 30 25.7783 78.0248 1 4 274
1888208N25083 1888 31 NI AS NOT_NAMED 1888-07-30 03:00:00 TS 25.8175 77.6712 main 0 0 _________PO___ -1 25.8350 77.5425 TC 30 25.8000 77.8000 1 4 281
1888208N25083 1888 31 NI AS NOT_NAMED 1888-07-30 06:00:00 TS 25.8726 77.4375 main 0 0 _________OP___ -1 25.9000 77.3000 TC 30 25.8452 77.5750 1 4 289
1888208N25083 1888 31 NI AS NOT_NAMED 1888-07-30 09:00:00 TS 25.9524 77.2250 main 0 0 _________PP___ -1 25.9924 77.1000 TC 30 25.9124 77.3500 1 4 295
1888208N25083 1888 31 NI AS NOT_NAMED 1888-07-30 12:00:00 TS 26.0492 77.0125 main 0 0 _________OP___ -1 26.1000 76.9000 TC 30 25.9983 77.1249 1 4 296
1888208N25083 1888 31 NI AS NOT_NAMED 1888-07-30 15:00:00 TS 26.1463 76.7750 main 0 0 _________PO___ -1 26.1925 76.6500 TC 30 26.1000 76.9000 1 5 296
1888208N25083 1888 31 NI AS NOT_NAMED 1888-07-30 18:00:00 TS 26.2510 76.5573 main 0 0 _________OP___ -1 26.3000 76.4000 TC 30 26.2142 76.6752 1 5 301
1888208N25083 1888 31 NI AS NOT_NAMED 1888-07-30 21:00:00 TS 26.3787 76.3453 main 0 0 _________PP___ -1 26.4400 76.1876 TC 30 26.3378 76.4504 1 4 306
1888208N25083 1888 31 NI AS NOT_NAMED 1888-07-31 00:00:00 TS 26.5116 76.1503 main 0 0 _________OP___ -1 26.6000 76.0000 TC 30 26.4675 76.2254 1 4 306
1888208N25083 1888 31 NI AS NOT_NAMED 1888-07-31 03:00:00 NR 26.6000 76.0000 main 0 __________O___ -1 TC 26.6000 76.0000 1 3 303

About IBTrACS Database

This database is a web-friendly format of International Best Track Archive for Climate Stewardship (IBTrACS), a global best track data archive curated by NOAA dating back to 1842.

Updated: 2021-11-26